Home > Products > Valid Products > TAF

000
FTUS43 KOAX 240520
TAFOMA
TAF
KOMA 240520Z 2406/2506 16005KT P6SM SCT250
     FM241100 17006KT 5SM BR SCT007 SCT250 WS015/22035KT
      TEMPO 2412/2415 3SM BR OVC007
     FM241600 21008KT P6SM SCT250
     FM242100 30010KT P6SM SKC=



000
FTUS43 KOAX 240520
TAFLNK
TAF
KLNK 240520Z 2406/2506 16004KT P6SM SCT250
     FM241000 17006KT 5SM BR SCT007 SCT250 WS015/23035KT
      TEMPO 2411/2414 3SM BR OVC007
     FM241500 22009KT P6SM SCT250
     FM242100 30010KT P6SM SKC=



000
FTUS43 KOAX 240520
TAFOFK
TAF
KOFK 240520Z 2406/2506 17008KT P6SM SCT250 WS015/25040KT
     FM241000 21007KT 5SM BR SCT007 SCT250
      TEMPO 2411/2414 3SM BR OVC007
     FM241500 26008KT P6SM SCT250
     FM242000 32010KT P6SM SKC=



000
FTUS43 KOAX 232320
TAFOMA
TAF
KOMA 232320Z 2400/2424 16005KT P6SM SCT250
     FM241000 17006KT 5SM BR SCT007 BKN250
      TEMPO 2411/2414 2SM BR OVC007
     FM241500 19010KT P6SM SCT250
     FM242000 27010KT P6SM SKC=



000
FTUS43 KOAX 232320
TAFOFK
TAF
KOFK 232320Z 2400/2424 18010KT P6SM SCT250
     FM241000 21007KT 5SM BR SCT007 BKN250
      TEMPO 2411/2414 1SM BR OVC007
     FM241500 26008KT P6SM SCT250
     FM242000 32010KT P6SM SKC=



000
FTUS43 KOAX 232320
TAFLNK
TAF
KLNK 232320Z 2400/2424 16004KT P6SM SCT250
     FM240900 17006KT P6SM SCT007 BKN250
      TEMPO 2410/2414 1SM BR OVC007
     FM241500 21009KT P6SM SCT250
     FM242000 27010KT P6SM SKC=



000
FTUS43 KOAX 232047 AAA
TAFOFK
TAF AMD
KOFK 232047Z 2321/2418 19011KT P6SM SKC
     FM232300 18005KT P6SM SCT250
     FM240700 21007KT 5SM BR FEW010 SCT250
      TEMPO 2409/2413 1SM BR BKN007
     FM241400 26006KT P6SM SCT250=



000
FTUS43 KOAX 231720
TAFOMA
TAF
KOMA 231720Z 2318/2418 VRB05KT P6SM SKC
     FM240900 16008KT 5SM BR FEW010 SCT250
      TEMPO 2409/2413 1SM BR BKN007
     FM241400 21006KT P6SM SCT250=



000
FTUS43 KOAX 231720
TAFOFK
TAF
KOFK 231720Z 2318/2418 21008KT P6SM SKC
     FM232300 18005KT P6SM SKC
     FM240700 21007KT 5SM BR FEW010 SCT250
      TEMPO 2409/2413 1SM BR BKN007
     FM241400 26006KT P6SM SCT250=



000
FTUS43 KOAX 231720
TAFLNK
TAF
KLNK 231720Z 2318/2418 VRB05KT 6SM HZ BKN015
      TEMPO 2318/2319 P6SM NSW SCT020
     FM231900 VRB05KT P6SM SKC
     FM240700 19008KT 5SM BR FEW010 SCT250
      TEMPO 2409/2413 1SM BR BKN007
     FM241400 23006KT P6SM SCT250=



000
FTUS43 KOAX 231601 AAA
TAFOMA
TAF AMD
KOMA 231601Z 2316/2412 VRB04KT 6SM BR BKN010
      TEMPO 2316/2317 BKN015
     FM231700 25006KT P6SM SCT025
     FM232300 17005KT P6SM FEW025=



000
FTUS43 KOAX 231600 AAD
TAFLNK
TAF AMD
KLNK 231600Z 2316/2412 VRB03KT 1/4SM FG VV002
      TEMPO 2316/2318 2SM BR BKN005
     FM231800 VRB03KT 6SM HZ SCT009
     FM231900 22005KT P6SM SCT025
     FM232300 17005KT P6SM FEW025=



000
FTUS43 KOAX 231600 AAD
TAFLNK
TAF AMD
KLNK 231600Z 2316/2412 VRB03KT 1/4SM FG VV002
      TEMPO 2316/2318 2SM BR BKN005
     FM231800 VRB03KT 6SM HZ SCT009
     FM231900 22005KT P6SM SCT025
     FM232300 17005KT P6SM FEW025=



000
FTUS43 KOAX 231459 AAC
TAFLNK
TAF AMD
KLNK 231459Z 2315/2412 VRB02KT 1/2SM FG VV002
      TEMPO 2315/2316 2SM BR BKN005
     FM231600 VRB03KT 6SM HZ SCT009
     FM231700 22005KT P6SM SCT025
     FM232300 17005KT P6SM FEW025=



000
FTUS43 KOAX 231459 AAC
TAFLNK
TAF AMD
KLNK 231459Z 2315/2412 VRB02KT 1/2SM FG VV002
      TEMPO 2315/2316 2SM BR BKN005
     FM231600 VRB03KT 6SM HZ SCT009
     FM231700 22005KT P6SM SCT025
     FM232300 17005KT P6SM FEW025=



000
FTUS43 KOAX 231422 AAB
TAFOFK
TAF AMD
KOFK 231422Z 2314/2412 VRB03KT P6SM SCT250
     FM231800 21009KT P6SM FEW030
     FM232300 17007KT P6SM SCT020=



000
FTUS43 KOAX 231422 AAB
TAFOFK
TAF AMD
KOFK 231422Z 2314/2412 VRB03KT P6SM SCT250
     FM231800 21009KT P6SM FEW030
     FM232300 17007KT P6SM SCT020=



000
FTUS43 KOAX 231322 AAB
TAFLNK
TAF AMD
KLNK 231322Z 2313/2412 VRB04KT 1/4SM FG VV001
      TEMPO 2314/2315 3SM BR BKN005
     FM231500 VRB03KT 6SM HZ SCT009
      TEMPO 2315/2316 3SM BR BKN009
     FM231700 22005KT P6SM SCT025
     FM232300 17005KT P6SM FEW025=



000
FTUS43 KOAX 231242 AAA
TAFOFK
TAF AMD
KOFK 231242Z 2313/2412 VRB04KT 2SM BR SCT007
      TEMPO 2313/2314 1/2SM FG BKN002
     FM231400 22005KT 4SM HZ SCT015
      TEMPO 2314/2315 1SM BR
     FM231800 21009KT P6SM FEW030
     FM232300 17007KT P6SM SCT020=



000
FTUS43 KOAX 231135 AAA
TAFLNK
TAF AMD
KLNK 231135Z 2312/2412 VRB04KT 3SM BR BKN015
      TEMPO 2312/2315 1/2SM FG BKN005
     FM231500 VRB03KT 6SM HZ SCT009
      TEMPO 2315/2316 3SM BR BKN009
     FM231700 22005KT P6SM SCT025
     FM232300 17005KT P6SM FEW025=



000
FTUS43 KOAX 231120
TAFOMA
TAF
KOMA 231120Z 2312/2412 VRB04KT 6SM BR BKN012
      TEMPO 2312/2315 2SM BR BKN008
     FM231500 VRB04KT 6SM BR SCT009
      TEMPO 2315/2316 4SM BR BKN009
     FM231700 25006KT P6SM SCT025
     FM232300 17005KT P6SM FEW025=



000
FTUS43 KOAX 231120
TAFLNK
TAF
KLNK 231120Z 2312/2412 VRB04KT 5SM BR BKN015
      TEMPO 2312/2315 2SM BR BKN007
     FM231500 VRB03KT 6SM HZ SCT009
      TEMPO 2315/2316 4SM BR BKN009
     FM231700 22005KT P6SM SCT025
     FM232300 17005KT P6SM FEW025=



000
FTUS43 KOAX 231120
TAFOFK
TAF
KOFK 231120Z 2312/2412 VRB04KT 3/4SM BR BKN003
      TEMPO 2312/2314 1/4SM FG VV001
     FM231400 22005KT 4SM HZ SCT015
      TEMPO 2314/2315 1SM BR
     FM231800 21009KT P6SM FEW030
     FM232300 17007KT P6SM SCT020=



000
FTUS43 KOAX 230914 AAB
TAFLNK
TAF AMD
KLNK 230914Z 2309/2406 20005KT 5SM BR BKN015
      TEMPO 2310/2314 2SM BR BKN007
     FM231400 VRB03KT 6SM HZ SCT007
      TEMPO 2314/2316 3SM BR
     FM231800 20005KT P6SM SCT030=



000
FTUS43 KOAX 230912 AAB
TAFOMA
TAF AMD
KOMA 230912Z 2309/2406 20008KT P6SM SCT009 OVC015
      TEMPO 2309/2312 3SM BR BKN009
     FM231200 VRB04KT 5SM BR BKN015
      TEMPO 2312/2314 2SM BR BKN006
     FM231700 25006KT P6SM SCT025=



000
FTUS43 KOAX 230909 AAC
TAFOFK
TAF AMD
KOFK 230909Z 2309/2406 VRB04KT 3/4SM BR BKN003
      TEMPO 2309/2313 1/4SM FG VV001
     FM231500 22005KT 4SM HZ SCT015
     FM231800 21009KT P6SM SCT025 SCT100=



000
FTUS43 KOAX 230724 AAB
TAFOFK
TAF AMD
KOFK 230724Z 2307/2406 VRB04KT 2SM BR SCT003 BKN009
      TEMPO 2307/2310 1/2SM FG BKN003
     FM231000 27004KT 2SM BR BKN003
      TEMPO 2310/2314 1/4SM FG VV001
     FM231600 22005KT P6SM SCT025
     FM231900 21009KT P6SM SCT030 SCT100=



000
FTUS43 KOAX 230659 AAA
TAFOFK
TAF AMD
KOFK 230659Z 2307/2406 VRB04KT 5SM BR SCT007 BKN025
      TEMPO 2307/2310 1SM BR BKN007
     FM231000 27004KT 3SM BR BKN007
      TEMPO 2310/2314 1SM BR BKN003
     FM231600 22005KT P6SM SCT025
     FM231900 21009KT P6SM SCT030 SCT100=



000
FTUS43 KOAX 230655 AAA
TAFOMA
TAF AMD
KOMA 230655Z 2307/2406 17008KT P6SM SCT008 BKN025
      TEMPO 2307/2310 3SM BR SCT008 OVC015
     FM231000 VRB04KT 5SM BR BKN015
      TEMPO 2310/2314 2SM BR BKN006
     FM231700 25006KT P6SM SCT025=



000
FTUS43 KOAX 230653 AAA
TAFLNK
TAF AMD
KLNK 230653Z 2307/2406 20008KT P6SM OVC040
      TEMPO 2307/2310 3SM BR OVC025
     FM231000 14006KT 5SM BR BKN015
      TEMPO 2310/2314 2SM BR
     FM231400 VRB03KT P6SM SCT015 SCT250
     FM231800 20005KT P6SM SCT030=



000
FTUS43 KOAX 230520
TAFLNK
TAF
KLNK 230520Z 2306/2406 14008KT P6SM BKN040
      TEMPO 2306/2310 3SM BR OVC025
     FM231000 14006KT 5SM BR BKN035
      TEMPO 2310/2314 2SM BR
     FM231400 18006KT P6SM SCT250=



000
FTUS43 KOAX 230520
TAFOMA
TAF
KOMA 230520Z 2306/2406 14008KT P6SM BKN040
      TEMPO 2306/2310 3SM BR OVC025
     FM231000 14006KT 5SM BR BKN035
      TEMPO 2310/2314 2SM BR
     FM231400 18006KT P6SM SCT250=



000
FTUS43 KOAX 230520
TAFOFK
TAF
KOFK 230520Z 2306/2406 31004KT P6SM SCT010 OVC020
      TEMPO 2306/2310 3SM BR
     FM231000 27004KT 5SM BR BKN035
      TEMPO 2310/2314 2SM BR
     FM231400 18005KT P6SM SCT250=



000
FTUS43 KOAX 230344 AAD
TAFOMA
TAF AMD
KOMA 230344Z 2304/2324 14012KT 6SM BR OVC050
      TEMPO 2304/2308 4SM BR OVC035
     FM230800 21010KT P6SM OVC100
     FM231100 VRB05KT 4SM BR SCT250
     FM231400 24006KT P6SM SCT250=



000
FTUS43 KOAX 230344 AAD
TAFOMA
TAF AMD
KOMA 230344Z 2304/2324 14012KT 6SM BR OVC050
      TEMPO 2304/2308 4SM BR OVC035
     FM230800 21010KT P6SM OVC100
     FM231100 VRB05KT 4SM BR SCT250
     FM231400 24006KT P6SM SCT250=



000
FTUS43 KOAX 230312 AAC
TAFLNK
TAF AMD
KLNK 230312Z 2303/2324 VRB04KT P6SM OVC080
      TEMPO 2303/2307 5SM BR BKN015
     FM230900 VRB05KT 4SM BR SCT250
     FM231400 25006KT P6SM SCT250=



000
FTUS43 KOAX 230151 AAC
TAFOMA
TAF AMD
KOMA 230151Z 2302/2324 15012KT 5SM -SHRA OVC080
      TEMPO 2302/2304 3SM -RA BR BKN015
     FM230400 21010KT P6SM OVC100
     FM231100 VRB05KT 4SM BR SCT250
     FM231400 24006KT P6SM SCT250=



000
FTUS43 KOAX 230151 AAC
TAFOMA
TAF AMD
KOMA 230151Z 2302/2324 15012KT 5SM -SHRA OVC080
      TEMPO 2302/2304 3SM -RA BR BKN015
     FM230400 21010KT P6SM OVC100
     FM231100 VRB05KT 4SM BR SCT250
     FM231400 24006KT P6SM SCT250=



000
FTUS43 KOAX 230150 AAB
TAFLNK
TAF AMD
KLNK 230150Z 2302/2324 VRB04KT P6SM OVC080
      TEMPO 2302/2304 2SM -RA BR FEW005 BKN019
     FM230900 VRB05KT 4SM BR SCT250
     FM231400 25006KT P6SM SCT250=



000
FTUS43 KOAX 230150 AAB
TAFLNK
TAF AMD
KLNK 230150Z 2302/2324 VRB04KT P6SM OVC080
      TEMPO 2302/2304 2SM -RA BR FEW005 BKN019
     FM230900 VRB05KT 4SM BR SCT250
     FM231400 25006KT P6SM SCT250=



000
FTUS43 KOAX 230149 AAA
TAFOFK
TAF AMD
KOFK 230149Z 2302/2324 27007KT P6SM BKN020
     FM230500 27006KT 3SM BR SCT250
     FM231300 24005KT P6SM SCT250=



000
FTUS43 KOAX 230149 AAA
TAFOFK
TAF AMD
KOFK 230149Z 2302/2324 27007KT P6SM BKN020
     FM230500 27006KT 3SM BR SCT250
     FM231300 24005KT P6SM SCT250=



000
FTUS43 KOAX 230140 AAA
TAFLNK
TAF AMD
KLNK 230140Z 2302/2324 VRB04KT P6SM OVC080
      TEMPO 2302/2304 2SM RA FEW005 BKN019
     FM230900 VRB05KT 4SM BR SCT250
     FM231400 25006KT P6SM SCT250=



000
FTUS43 KOAX 230140 AAA
TAFLNK
TAF AMD
KLNK 230140Z 2302/2324 VRB04KT P6SM OVC080
      TEMPO 2302/2304 2SM RA FEW005 BKN019
     FM230900 VRB05KT 4SM BR SCT250
     FM231400 25006KT P6SM SCT250=



000
FTUS43 KOAX 230115 AAB
TAFOMA
TAF AMD
KOMA 230115Z 2301/2324 15012KT 5SM -SHRA OVC080
      TEMPO 2301/2303 3SM -RA BKN015
     FM230300 21010KT P6SM OVC100
     FM231100 VRB05KT 4SM BR SCT250
     FM231400 24006KT P6SM SCT250=



000
FTUS43 KOAX 230115 AAB
TAFOMA
TAF AMD
KOMA 230115Z 2301/2324 15012KT 5SM -SHRA OVC080
      TEMPO 2301/2303 3SM -RA BKN015
     FM230300 21010KT P6SM OVC100
     FM231100 VRB05KT 4SM BR SCT250
     FM231400 24006KT P6SM SCT250=



000
FTUS43 KOAX 230009 AAA
TAFOMA
TAF AMD
KOMA 230009Z 2300/2324 15012KT 5SM -SHRA OVC080
      TEMPO 2300/2303 3SM -RA BKN035
     FM230300 21010KT P6SM OVC100
     FM231100 VRB05KT 4SM BR SCT250
     FM231400 24006KT P6SM SCT250=



000
FTUS43 KOAX 230009 AAA
TAFOMA
TAF AMD
KOMA 230009Z 2300/2324 15012KT 5SM -SHRA OVC080
      TEMPO 2300/2303 3SM -RA BKN035
     FM230300 21010KT P6SM OVC100
     FM231100 VRB05KT 4SM BR SCT250
     FM231400 24006KT P6SM SCT250=



000
FTUS43 KOAX 222320
TAFLNK
TAF
KLNK 222320Z 2300/2324 28012G22KT P6SM OVC060
      TEMPO 2300/2302 4SM -RA BKN035
     FM230200 20007KT P6SM OVC080
     FM230900 VRB05KT 4SM BR SCT250
     FM231400 25006KT P6SM SCT250=



000
FTUS43 KOAX 222320
TAFOMA
TAF
KOMA 222320Z 2300/2324 28012G22KT 5SM -SHRA OVC080
      TEMPO 2300/2303 3SM -RA BKN035
     FM230300 21010KT P6SM OVC100
     FM231100 VRB05KT 4SM BR SCT250
     FM231400 24006KT P6SM SCT250=



000
FTUS43 KOAX 222320
TAFOFK
TAF
KOFK 222320Z 2300/2324 27007KT P6SM SCT040 BKN080
     FM230500 27006KT P6SM SCT250=



000
FTUS43 KOAX 222158 AAB
TAFOFK
TAF AMD
KOFK 222158Z 2222/2318 29013KT P6SM SCT250
      TEMPO 2222/2224 2SM -RA BKN050
     FM230000 18010KT P6SM BKN100
     FM230200 24010KT P6SM BKN250=



000
FTUS43 KOAX 221848 AAA
TAFOFK
TAF AMD
KOFK 221848Z 2219/2318 17014G22KT P6SM SCT250
      TEMPO 2220/2224 5SM -TSRA BKN025CB
     FM230000 18010KT P6SM BKN100
     FM230200 24010KT P6SM BKN250=



000
FTUS43 KOAX 221847 AAA
TAFLNK
TAF AMD
KLNK 221847Z 2219/2318 18012G22KT P6SM SCT250
      TEMPO 2222/2302 5SM -TSRA BKN025CB
     FM230200 18007KT P6SM OVC100
     FM230900 VRB05KT 4SM BR SCT250
     FM231400 25010KT P6SM SCT250=



000
FTUS43 KOAX 221846 AAA
TAFOMA
TAF AMD
KOMA 221846Z 2219/2318 18012G22KT P6SM SCT250
      TEMPO 2223/2303 3SM -TSRA BKN025CB
     FM230300 16010KT P6SM OVC100
     FM231100 VRB05KT 4SM BR SCT250
     FM231400 29010KT P6SM SCT250=



000
FTUS43 KOAX 221720
TAFOMA
TAF
KOMA 221720Z 2218/2318 16012G22KT P6SM SCT050
      TEMPO 2223/2303 5SM -SHRA BKN025
     FM230300 16010KT P6SM OVC100
     FM231100 VRB05KT 4SM BR SCT250
     FM231400 29010KT P6SM SCT250=



000
FTUS43 KOAX 221720
TAFOFK
TAF
KOFK 221720Z 2218/2318 17016G22KT P6SM SCT050
      TEMPO 2220/2224 5SM -SHRA BKN025
     FM230000 18010KT P6SM BKN100
     FM230200 24010KT P6SM BKN250=



000
FTUS43 KOAX 221720
TAFOMA
TAF
KOMA 221720Z 2218/2318 16012G22KT P6SM SCT050
      TEMPO 2223/2303 5SM -SHRA BKN025
     FM230300 16010KT P6SM OVC100
     FM231100 VRB05KT 4SM BR SCT250
     FM231400 29010KT P6SM SCT250=



000
FTUS43 KOAX 221720
TAFOFK
TAF
KOFK 221720Z 2218/2318 17016G22KT P6SM SCT050
      TEMPO 2220/2224 5SM -SHRA BKN025
     FM230000 18010KT P6SM BKN100
     FM230200 24010KT P6SM BKN250=



000
FTUS43 KOAX 221720
TAFLNK
TAF
KLNK 221720Z 2218/2318 17012G22KT P6SM SCT050
      TEMPO 2222/2302 5SM -SHRA BKN025
     FM230200 18007KT P6SM OVC100
     FM230900 VRB05KT 4SM BR SCT250
     FM231400 25010KT P6SM SCT250=



000
FTUS43 KOAX 221720
TAFLNK
TAF
KLNK 221720Z 2218/2318 17012G22KT P6SM SCT050
      TEMPO 2222/2302 5SM -SHRA BKN025
     FM230200 18007KT P6SM OVC100
     FM230900 VRB05KT 4SM BR SCT250
     FM231400 25010KT P6SM SCT250=



000
FTUS43 KOAX 221242 AAA
TAFOMA
TAF AMD
KOMA 221242Z 2213/2312 15013KT P6SM SCT050
     FM221600 16015G24KT P6SM SCT060 BKN250
     FM222100 17014KT P6SM BKN035 PROB30 2222/2302 5SM -TSRA
      OVC025CB
     FM230200 16010KT 6SM -SHRA OVC035
      TEMPO 2302/2306 4SM SHRA OVC020
     FM230600 VRB05KT 5SM BR SCT008 BKN020=



000
FTUS43 KOAX 221120
TAFOFK
TAF
KOFK 221120Z 2212/2312 16013KT P6SM SCT050 BKN200
     FM221500 17015G24KT P6SM BKN050 OVC150
     FM221900 18015KT P6SM OVC040
      TEMPO 2219/2221 5SM -SHRA
     FM222100 20010KT 6SM -SHRA OVC035
      TEMPO 2221/2301 3SM TSRA SCT015 OVC025CB
     FM230200 24005KT P6SM SCT035 BKN250=



000
FTUS43 KOAX 221120
TAFOMA
TAF
KOMA 221120Z 2212/2312 15013KT P6SM SCT020 BKN060
     FM221600 16015G24KT P6SM SCT060 BKN250
     FM222100 17014KT P6SM BKN035 PROB30 2222/2302 5SM -TSRA
      BKN025CB
     FM230200 16010KT 6SM -SHRA OVC035
      TEMPO 2302/2306 4SM SHRA OVC020
     FM230600 VRB05KT 5SM BR SCT008 BKN020=



000
FTUS43 KOAX 221120
TAFLNK
TAF
KLNK 221120Z 2212/2312 16012KT P6SM SCT070 BKN200
     FM221600 17015G24KT P6SM SCT050 BKN150
     FM222100 17012KT P6SM BKN035
      TEMPO 2221/2301 4SM TSRA BKN025CB
     FM230100 18008KT 6SM -SHRA OVC035 PROB30 2301/2305 4SM TSRA
      OVC020CB
     FM230500 24005KT 5SM BR SCT008 BKN020=



000
FTUS43 KOAX 220910 AAA
TAFOMA
TAF AMD
KOMA 220910Z 2209/2306 14011KT P6SM SCT050
     FM221100 15013KT P6SM BKN070
     FM221600 16015G24KT P6SM SCT070 BKN250
     FM222300 17012KT P6SM BKN035 PROB30 2300/2306 5SM -TSRA
      BKN025CB=



000
FTUS43 KOAX 220909 AAA
TAFLNK
TAF AMD
KLNK 220909Z 2209/2306 15010KT P6SM BKN070
     FM221200 16012KT P6SM SCT070 BKN150
     FM221600 17015G24KT P6SM SCT050 BKN200
     FM222200 17012KT P6SM BKN035
      TEMPO 2223/2303 4SM TSRA BKN025CB
     FM230300 21009KT P6SM BKN025=



000
FTUS43 KOAX 220520
TAFLNK
TAF
KLNK 220520Z 2206/2306 14011KT P6SM BKN050
     FM221200 16012KT P6SM BKN070
     FM221600 17015G24KT P6SM SCT050 BKN200
     FM222200 16014KT P6SM BKN035
      TEMPO 2223/2303 4SM TSRA BKN025CB
     FM230300 21010KT P6SM BKN025=



000
FTUS43 KOAX 220520
TAFOFK
TAF
KOFK 220520Z 2206/2306 14012KT P6SM SCT050 BKN250
     FM220800 15012KT P6SM BKN050
     FM221500 17015G24KT P6SM SCT040 BKN150
     FM221900 18015KT P6SM OVC040
      TEMPO 2221/2301 3SM TSRA BKN025CB
     FM230200 29007KT P6SM SCT035 BKN250=



000
FTUS43 KOAX 220520
TAFOMA
TAF
KOMA 220520Z 2206/2306 14012KT P6SM BKN050
     FM221100 15013KT P6SM SCT050 SCT250
     FM221600 16015G24KT P6SM SCT070 BKN250
     FM222300 17012KT P6SM BKN035 PROB30 2300/2306 5SM -TSRA
      BKN025CB=



000
FTUS43 KOAX 220520
TAFLNK
TAF
KLNK 220520Z 2206/2306 14011KT P6SM BKN050
     FM221200 16012KT P6SM BKN070
     FM221600 17015G24KT P6SM SCT050 BKN200
     FM222200 16014KT P6SM BKN035
      TEMPO 2223/2303 4SM TSRA BKN025CB
     FM230300 21010KT P6SM BKN025=



000
FTUS43 KOAX 220520
TAFOFK
TAF
KOFK 220520Z 2206/2306 14012KT P6SM SCT050 BKN250
     FM220800 15012KT P6SM BKN050
     FM221500 17015G24KT P6SM SCT040 BKN150
     FM221900 18015KT P6SM OVC040
      TEMPO 2221/2301 3SM TSRA BKN025CB
     FM230200 29007KT P6SM SCT035 BKN250=



000
FTUS43 KOAX 220520
TAFOMA
TAF
KOMA 220520Z 2206/2306 14012KT P6SM BKN050
     FM221100 15013KT P6SM SCT050 SCT250
     FM221600 16015G24KT P6SM SCT070 BKN250
     FM222300 17012KT P6SM BKN035 PROB30 2300/2306 5SM -TSRA
      BKN025CB=



000
FTUS43 KOAX 212328
TAFLNK
TAF
KLNK 212328Z 2200/2224 14010KT P6SM SKC
     FM220900 14011KT P6SM SCT040
     FM221600 16014KT P6SM BKN035=



000
FTUS43 KOAX 212328
TAFOFK
TAF
KOFK 212328Z 2200/2224 15010KT P6SM SKC
     FM220900 15012KT P6SM SCT040
     FM222100 18015KT P6SM SCT040 PROB30 2221/2224 5SM -SHRA BKN025=



000
FTUS43 KOAX 212328
TAFOMA
TAF
KOMA 212328Z 2200/2224 15009KT P6SM SKC
     FM220900 14011KT P6SM SCT040
     FM221600 16014KT P6SM BKN035=



000
FTUS43 KOAX 211723
TAFOMA
TAF
KOMA 211723Z 2118/2218 15010KT P6SM SKC
     FM220900 14011KT P6SM SCT015 BKN035
     FM221600 16014KT P6SM BKN035=



000
FTUS43 KOAX 211723
TAFLNK
TAF
KLNK 211723Z 2118/2218 16010KT P6SM SKC
     FM220900 14011KT P6SM SCT015 BKN035
     FM221600 16014KT P6SM BKN035=



000
FTUS43 KOAX 211723
TAFOFK
TAF
KOFK 211723Z 2118/2218 18010KT P6SM SKC
     FM220000 15012KT P6SM SKC
     FM220900 15012KT P6SM SCT012 BKN035
     FM221700 18015KT P6SM VCSH SCT010 OVC030=



000
FTUS43 KOAX 211120
TAFLNK
TAF
KLNK 211120Z 2112/2212 VRB04KT P6SM SKC
     FM211600 16008KT P6SM SKC
     FM211900 16011KT P6SM FEW250
     FM220400 14010KT P6SM BKN040
      TEMPO 2206/2210 BKN030=



000
FTUS43 KOAX 211120
TAFOMA
TAF
KOMA 211120Z 2112/2212 VRB04KT P6SM SKC
     FM211600 14007KT P6SM SKC
     FM211900 15011KT P6SM FEW250
     FM220400 14010KT P6SM SCT035 SCT100
      TEMPO 2208/2212 OVC035=



000
FTUS43 KOAX 211120
TAFLNK
TAF
KLNK 211120Z 2112/2212 VRB04KT P6SM SKC
     FM211600 16008KT P6SM SKC
     FM211900 16011KT P6SM FEW250
     FM220400 14010KT P6SM BKN040
      TEMPO 2206/2210 BKN030=



000
FTUS43 KOAX 211120
TAFOFK
TAF
KOFK 211120Z 2112/2212 15005KT P6SM SKC
     FM211600 16010KT P6SM SKC
     FM211900 17014G21KT P6SM FEW250
     FM220000 15012KT P6SM SCT250
     FM220600 15012KT P6SM BKN035=



000
FTUS43 KOAX 211120
TAFOMA
TAF
KOMA 211120Z 2112/2212 VRB04KT P6SM SKC
     FM211600 14007KT P6SM SKC
     FM211900 15011KT P6SM FEW250
     FM220400 14010KT P6SM SCT035 SCT100
      TEMPO 2208/2212 OVC035=



000
FTUS43 KOAX 211120
TAFLNK
TAF
KLNK 211120Z 2112/2212 VRB04KT P6SM SKC
     FM211600 16008KT P6SM SKC
     FM211900 16011KT P6SM FEW250
     FM220400 14010KT P6SM BKN040
      TEMPO 2206/2210 BKN030=



000
FTUS43 KOAX 211120
TAFLNK
TAF
KLNK 211120Z 2112/2212 VRB04KT P6SM SKC
     FM211600 16008KT P6SM SKC
     FM211900 16011KT P6SM FEW250
     FM220400 14010KT P6SM BKN040
      TEMPO 2206/2210 BKN030=



000
FTUS43 KOAX 211120
TAFOMA
TAF
KOMA 211120Z 2112/2212 VRB04KT P6SM SKC
     FM211600 14007KT P6SM SKC
     FM211900 15011KT P6SM FEW250
     FM220400 14010KT P6SM SCT035 SCT100
      TEMPO 2208/2212 OVC035=



000
FTUS43 KOAX 211120
TAFOMA
TAF
KOMA 211120Z 2112/2212 VRB04KT P6SM SKC
     FM211600 14007KT P6SM SKC
     FM211900 15011KT P6SM FEW250
     FM220400 14010KT P6SM SCT035 SCT100
      TEMPO 2208/2212 OVC035=



000
FTUS43 KOAX 211120
TAFOFK
TAF
KOFK 211120Z 2112/2212 15005KT P6SM SKC
     FM211600 16010KT P6SM SKC
     FM211900 17014G21KT P6SM FEW250
     FM220000 15012KT P6SM SCT250
     FM220600 15012KT P6SM BKN035=



000
FTUS43 KOAX 211120
TAFOFK
TAF
KOFK 211120Z 2112/2212 15005KT P6SM SKC
     FM211600 16010KT P6SM SKC
     FM211900 17014G21KT P6SM FEW250
     FM220000 15012KT P6SM SCT250
     FM220600 15012KT P6SM BKN035=



000
FTUS43 KOAX 211120
TAFOFK
TAF
KOFK 211120Z 2112/2212 15005KT P6SM SKC
     FM211600 16010KT P6SM SKC
     FM211900 17014G21KT P6SM FEW250
     FM220000 15012KT P6SM SCT250
     FM220600 15012KT P6SM BKN035=



    US Dept of Commerce
    National Oceanic and Atmospheric Administration
    National Weather Service
    1325 East West Highway
    Silver Spring, MD 20910
    Page Author: NWS Internet Services Team
Disclaimer
Information Quality
Credits
Glossary
Privacy Policy
Freedom of Information Act (FOIA)
About Us
Career Opportunities